Back to top

Buffalo, WY weather

Johnson County Airport, Buffalo, WY: 1/20/2020 04:53
Visibility10 statute milesclear sky
View 7-Day Forecast
Area Summary
Sky/CloudsSky Clear
Weather [last 24 hours]None
Pressure30.27 in.Hg (1025 hPa)
3-hour Pressure Tendency0.002953 in.Hg (0.1 hPa) Steady or increasing, then decreasing; or decreasing then decreasing more rapidly
Dew Point3.9 °F (-15.6 °C)
Relative Humidity33.7 %
Temperature28.9 °F (-1.7 °C)red thermometer
Wind Chill23.8 °F (-4.54 °C)
Reading TimeMinimum to Maximum Temperature
6-hr ending 1/20@04:5321 °F to 32 °F (-6.1 °C to 0 °C)
6-hr ending 1/19@22:5323 °F to 36 °F (-5 °C to 2.2 °C)
6-hr ending 1/19@16:5336 °F to 42.1 °F (2.2 °C to 5.6 °C)
6-hr ending 1/19@10:5323 °F to 37.9 °F (-5 °C to 3.3 °C)
24-hr ending 1/19@23:5317.1 °F to 42.1 °F (-8.3 °C to 5.6 °C)
Wind4.6 MPH (4 KT) green arrow pointing 270 degrees
Wind FromWest (260 Degrees)
Twilight Begins07:02Sunshine Yesterday
Sunrise07:34N/A
Sunset17:02
Twilight Ends17:34
METARKBYG 201153Z AUTO 26004KT 10SM CLR M02/M16 A3027 RMK AO2 SLP270 T10171156 10000 21061 58001
Tags: